createdAt,value
2019-03-22T00:00:48.893Z,7.82
2019-03-22T00:01:48.922Z,7.82
2019-03-22T00:02:48.872Z,7.83
2019-03-22T00:03:48.873Z,7.83
2019-03-22T00:04:48.850Z,7.80
2019-03-22T00:05:48.841Z,7.79
2019-03-22T00:06:48.851Z,7.80
2019-03-22T00:07:48.892Z,7.83
2019-03-22T00:08:48.805Z,7.89
2019-03-22T00:09:48.796Z,7.90
2019-03-22T00:10:48.787Z,7.87
2019-03-22T00:11:48.796Z,7.89
2019-03-22T00:12:48.759Z,7.89
2019-03-22T00:13:48.755Z,7.83
2019-03-22T00:14:48.735Z,7.87
2019-03-22T00:15:48.725Z,7.90
2019-03-22T00:16:48.816Z,7.92
2019-03-22T00:17:48.700Z,7.87
2019-03-22T00:18:48.694Z,7.87
2019-03-22T00:19:48.681Z,7.90
2019-03-22T00:20:48.719Z,7.92
2019-03-22T00:21:48.681Z,7.92
2019-03-22T00:22:48.694Z,7.93
2019-03-22T00:23:48.643Z,7.97
2019-03-22T00:24:48.628Z,7.98
2019-03-22T00:25:48.609Z,7.98
2019-03-22T00:26:48.613Z,7.95
2019-03-22T00:27:48.618Z,8.00
2019-03-22T00:28:48.582Z,7.97
2019-03-22T00:29:48.564Z,7.98
2019-03-22T00:30:48.559Z,8.05
2019-03-22T00:31:49.097Z,8.01
2019-03-22T00:32:48.553Z,8.11
2019-03-22T00:33:48.527Z,8.07
2019-03-22T00:34:48.516Z,8.05
2019-03-22T00:35:48.508Z,8.12
2019-03-22T00:36:49.158Z,8.12
2019-03-22T00:37:48.502Z,8.05
2019-03-22T00:38:48.477Z,8.07
2019-03-22T00:39:48.458Z,8.15
2019-03-22T00:40:48.442Z,8.16
2019-03-22T00:41:48.434Z,8.18
2019-03-22T00:42:48.446Z,8.11
2019-03-22T00:43:48.419Z,8.11
2019-03-22T00:44:48.412Z,8.23
2019-03-22T00:45:48.387Z,8.11
2019-03-22T00:46:48.373Z,8.26
2019-03-22T00:47:48.393Z,8.26
2019-03-22T00:48:48.353Z,8.23
2019-03-22T00:49:48.354Z,8.26
2019-03-22T00:50:48.377Z,8.22
2019-03-22T00:51:48.320Z,8.25
2019-03-22T00:52:48.343Z,8.30
2019-03-22T00:53:48.311Z,8.26
2019-03-22T00:54:48.400Z,8.26
2019-03-22T00:55:48.284Z,8.26
2019-03-22T00:56:48.266Z,8.28
2019-03-22T00:57:48.255Z,8.34
2019-03-22T00:58:48.390Z,8.29
2019-03-22T00:59:48.287Z,8.37
2019-03-22T01:00:48.226Z,8.38
2019-03-22T01:01:48.222Z,8.36
2019-03-22T01:02:48.203Z,8.33
2019-03-22T01:03:48.253Z,8.36
2019-03-22T01:04:48.179Z,8.37
2019-03-22T01:05:48.165Z,8.40
2019-03-22T01:06:48.186Z,8.43
2019-03-22T01:07:48.136Z,8.41
2019-03-22T01:08:48.153Z,8.43
2019-03-22T01:09:48.126Z,8.43
2019-03-22T01:10:48.110Z,8.43
2019-03-22T01:11:48.310Z,8.44
2019-03-22T01:12:48.089Z,8.41
2019-03-22T01:13:48.098Z,8.44
2019-03-22T01:14:48.068Z,8.47
2019-03-22T01:15:48.055Z,8.47
2019-03-22T01:16:48.050Z,8.55
2019-03-22T01:17:48.035Z,8.50
2019-03-22T01:18:48.042Z,8.52
2019-03-22T01:19:48.006Z,8.44
2019-03-22T01:20:47.994Z,8.45
2019-03-22T01:21:47.980Z,8.43
2019-03-22T01:22:47.974Z,8.48
2019-03-22T01:23:47.992Z,8.44
2019-03-22T01:24:47.970Z,8.53
2019-03-22T01:25:47.938Z,8.50
2019-03-22T01:26:47.928Z,8.48
2019-03-22T01:27:47.949Z,8.62
2019-03-22T01:28:47.904Z,8.55
2019-03-22T01:29:47.931Z,8.63
2019-03-22T01:30:47.880Z,8.65
2019-03-22T01:31:47.868Z,8.63
2019-03-22T01:32:47.869Z,8.70
2019-03-22T01:33:47.850Z,8.71
2019-03-22T01:34:47.864Z,8.73
2019-03-22T01:35:47.835Z,8.71
2019-03-22T01:36:47.814Z,8.71
2019-03-22T01:37:47.807Z,8.66
2019-03-22T01:38:47.791Z,8.68
2019-03-22T01:39:47.803Z,8.68
2019-03-22T01:40:47.774Z,8.81
2019-03-22T01:41:47.779Z,8.76
2019-03-22T01:42:48.019Z,8.71
2019-03-22T01:43:47.741Z,8.73
2019-03-22T01:44:47.749Z,8.73
2019-03-22T01:45:47.728Z,8.81
2019-03-22T01:46:47.704Z,8.81
2019-03-22T01:47:47.695Z,8.80
2019-03-22T01:48:47.682Z,8.89
2019-03-22T01:49:47.685Z,8.91
2019-03-22T01:50:47.655Z,8.89
2019-03-22T01:51:47.641Z,8.87
2019-03-22T01:52:47.647Z,8.94
2019-03-22T01:53:47.622Z,8.92
2019-03-22T01:54:47.647Z,8.91
2019-03-22T01:55:47.601Z,8.95
2019-03-22T01:56:47.591Z,8.98
2019-03-22T01:57:53.642Z,8.94
2019-03-22T01:58:48.568Z,8.98
2019-03-22T01:59:47.556Z,9.02
2019-03-22T02:00:47.619Z,8.99
2019-03-22T02:01:47.534Z,9.04
2019-03-22T02:02:47.521Z,9.02
2019-03-22T02:03:47.517Z,9.08
2019-03-22T02:04:47.505Z,9.10
2019-03-22T02:05:47.520Z,9.14
2019-03-22T02:06:47.470Z,9.17
2019-03-22T02:07:47.464Z,9.17
2019-03-22T02:08:47.455Z,9.13
2019-03-22T02:09:47.446Z,9.15
2019-03-22T02:10:47.462Z,9.13
2019-03-22T02:11:47.421Z,9.17
2019-03-22T02:12:47.410Z,9.14
2019-03-22T02:13:47.407Z,9.14
2019-03-22T02:14:47.382Z,9.15
2019-03-22T02:15:47.398Z,9.14
2019-03-22T02:16:47.363Z,9.10
2019-03-22T02:17:47.352Z,9.18
2019-03-22T02:18:47.358Z,9.13
2019-03-22T02:19:47.330Z,9.18
2019-03-22T02:20:47.341Z,9.14
2019-03-22T02:21:47.310Z,9.10
2019-03-22T02:22:47.302Z,9.14
2019-03-22T02:23:47.298Z,9.23
2019-03-22T02:24:47.270Z,9.17
2019-03-22T02:25:47.282Z,9.26
2019-03-22T02:26:48.225Z,9.20
2019-03-22T02:27:47.235Z,9.23
2019-03-22T02:28:47.253Z,9.21
2019-03-22T02:29:47.213Z,9.14
2019-03-22T02:30:47.217Z,9.15
2019-03-22T02:31:47.213Z,9.21
2019-03-22T02:32:47.191Z,9.13
2019-03-22T02:33:47.177Z,9.15
2019-03-22T02:34:47.166Z,9.21
2019-03-22T02:35:47.151Z,9.29
2019-03-22T02:36:47.160Z,9.35
2019-03-22T02:37:47.148Z,9.36
2019-03-22T02:38:47.123Z,9.38
2019-03-22T02:39:47.331Z,9.33
2019-03-22T02:40:47.107Z,9.31
2019-03-22T02:41:47.113Z,9.35
2019-03-22T02:42:47.075Z,9.43
2019-03-22T02:43:47.082Z,9.38
2019-03-22T02:44:47.296Z,9.46
2019-03-22T02:45:47.037Z,9.51
2019-03-22T02:46:47.024Z,9.48
2019-03-22T02:47:47.015Z,9.46
2019-03-22T02:48:47.035Z,9.54
2019-03-22T02:49:46.989Z,9.51
2019-03-22T02:50:46.979Z,9.38
2019-03-22T02:51:46.991Z,9.38
2019-03-22T02:52:46.968Z,9.33
2019-03-22T02:53:46.981Z,9.33
2019-03-22T02:54:46.935Z,9.36
2019-03-22T02:55:46.975Z,9.38
2019-03-22T02:56:46.931Z,9.32
2019-03-22T02:57:46.953Z,9.35
2019-03-22T02:58:46.890Z,9.35
2019-03-22T02:59:46.880Z,9.38
2019-03-22T03:00:46.868Z,9.42
2019-03-22T03:01:46.879Z,9.39
2019-03-22T03:02:46.858Z,9.47
2019-03-22T03:03:46.840Z,9.48
2019-03-22T03:04:46.824Z,9.53
2019-03-22T03:05:46.829Z,9.60
2019-03-22T03:06:46.845Z,9.53
2019-03-22T03:07:46.791Z,9.56
2019-03-22T03:08:46.770Z,9.54
2019-03-22T03:09:46.773Z,9.57
2019-03-22T03:10:46.751Z,9.60
2019-03-22T03:11:46.759Z,9.53
2019-03-22T03:12:46.740Z,9.60
2019-03-22T03:13:46.751Z,9.57
2019-03-22T03:14:46.717Z,9.54
2019-03-22T03:15:46.698Z,9.56
2019-03-22T03:16:46.693Z,9.56
2019-03-22T03:17:46.687Z,9.57
2019-03-22T03:18:46.669Z,9.61
2019-03-22T03:19:46.677Z,9.60
2019-03-22T03:20:46.654Z,9.60
2019-03-22T03:21:46.648Z,9.50
2019-03-22T03:22:46.627Z,9.53
2019-03-22T03:23:46.607Z,9.48
2019-03-22T03:24:46.618Z,9.48
2019-03-22T03:25:46.593Z,9.43
2019-03-22T03:26:46.737Z,9.38
2019-03-22T03:27:46.770Z,9.46
2019-03-22T03:28:46.556Z,9.48
2019-03-22T03:29:46.542Z,9.53
2019-03-22T03:30:46.531Z,9.53
2019-03-22T03:31:46.519Z,9.50
2019-03-22T03:32:46.531Z,9.60
2019-03-22T03:33:46.512Z,9.53
2019-03-22T03:34:46.481Z,9.51
2019-03-22T03:35:46.477Z,9.57
2019-03-22T03:36:46.463Z,9.58
2019-03-22T03:37:46.477Z,9.56
2019-03-22T03:38:46.439Z,9.65
2019-03-22T03:39:46.437Z,9.58
2019-03-22T03:40:46.425Z,9.56
2019-03-22T03:41:46.416Z,9.58
2019-03-22T03:42:46.412Z,9.61
2019-03-22T03:43:46.379Z,9.58
2019-03-22T03:44:46.376Z,9.64
2019-03-22T03:45:46.370Z,9.65
2019-03-22T03:46:46.351Z,9.75
2019-03-22T03:47:46.365Z,9.68
2019-03-22T03:48:46.326Z,9.72
2019-03-22T03:49:46.383Z,9.74
2019-03-22T03:50:46.308Z,9.72
2019-03-22T03:51:46.297Z,9.72
2019-03-22T03:52:46.304Z,9.71
2019-03-22T03:53:46.269Z,9.75
2019-03-22T03:54:46.278Z,9.75
2019-03-22T03:55:46.243Z,9.78
2019-03-22T03:56:46.238Z,9.75
2019-03-22T03:57:46.223Z,9.78
2019-03-22T03:58:52.661Z,9.75
2019-03-22T03:59:47.211Z,9.69
2019-03-22T04:00:46.188Z,9.83
2019-03-22T04:01:46.182Z,9.75
2019-03-22T04:02:46.167Z,9.75
2019-03-22T04:03:46.207Z,9.78
2019-03-22T04:04:46.157Z,9.76
2019-03-22T04:05:46.140Z,9.83
2019-03-22T04:06:46.277Z,9.78
2019-03-22T04:07:46.117Z,9.74
2019-03-22T04:08:46.128Z,9.78
2019-03-22T04:09:46.091Z,9.78
2019-03-22T04:10:46.104Z,9.74
2019-03-22T04:11:46.069Z,9.69
2019-03-22T04:12:46.056Z,9.65
2019-03-22T04:13:46.068Z,9.61
2019-03-22T04:14:46.064Z,9.57
2019-03-22T04:15:46.031Z,9.54
2019-03-22T04:16:46.036Z,9.65
2019-03-22T04:17:46.004Z,9.66
2019-03-22T04:18:45.987Z,9.65
2019-03-22T04:19:46.013Z,9.68
2019-03-22T04:20:45.965Z,9.66
2019-03-22T04:21:45.961Z,9.71
2019-03-22T04:22:45.945Z,9.74
2019-03-22T04:23:45.940Z,9.76
2019-03-22T04:24:45.938Z,9.81
2019-03-22T04:25:45.905Z,9.75
2019-03-22T04:26:45.909Z,9.81
2019-03-22T04:27:45.919Z,9.81
2019-03-22T04:28:45.880Z,9.74
2019-03-22T04:29:46.006Z,9.79
2019-03-22T04:30:45.850Z,9.76
2019-03-22T04:31:45.840Z,9.87
2019-03-22T04:32:45.845Z,9.79
2019-03-22T04:33:45.821Z,9.79
2019-03-22T04:34:45.834Z,9.72
2019-03-22T04:35:46.712Z,9.78
2019-03-22T04:36:45.790Z,9.78
2019-03-22T04:37:45.774Z,9.74
2019-03-22T04:38:45.785Z,9.72
2019-03-22T04:39:45.752Z,9.71
2019-03-22T04:40:45.749Z,9.75
2019-03-22T04:41:45.727Z,9.81
2019-03-22T04:42:45.717Z,9.74
2019-03-22T04:43:45.770Z,9.75
2019-03-22T04:44:45.713Z,9.72
2019-03-22T04:45:45.717Z,9.79
2019-03-22T04:46:45.677Z,9.84
2019-03-22T04:47:46.174Z,9.72
2019-03-22T04:48:45.647Z,9.79
2019-03-22T04:49:45.646Z,9.75
2019-03-22T04:50:45.657Z,9.66
2019-03-22T04:51:45.663Z,9.72
2019-03-22T04:52:45.603Z,9.75
2019-03-22T04:53:45.596Z,9.69
2019-03-22T04:54:45.580Z,9.72
2019-03-22T04:55:45.587Z,9.72
2019-03-22T04:56:45.556Z,9.72
2019-03-22T04:57:45.548Z,9.71
2019-03-22T04:58:46.813Z,9.72
2019-03-22T04:59:45.524Z,9.72
2019-03-22T05:00:45.533Z,9.75
2019-03-22T05:01:45.522Z,9.71
2019-03-22T05:02:45.496Z,9.79
2019-03-22T05:03:45.483Z,9.81
2019-03-22T05:04:45.466Z,9.72
2019-03-22T05:05:45.490Z,9.78
2019-03-22T05:06:45.456Z,9.72
2019-03-22T05:07:45.434Z,9.72
2019-03-22T05:08:45.425Z,9.81
2019-03-22T05:09:45.411Z,9.69
2019-03-22T05:10:45.416Z,9.72
2019-03-22T05:11:45.387Z,9.83
2019-03-22T05:12:45.385Z,9.76
2019-03-22T05:13:45.370Z,9.76
2019-03-22T05:14:45.357Z,9.79
2019-03-22T05:15:45.368Z,9.81
2019-03-22T05:16:45.350Z,9.79
2019-03-22T05:17:45.323Z,9.78
2019-03-22T05:18:45.464Z,9.87
2019-03-22T05:19:45.303Z,9.78
2019-03-22T05:20:45.286Z,9.79
2019-03-22T05:21:45.298Z,9.87
2019-03-22T05:22:45.260Z,9.75
2019-03-22T05:23:45.258Z,9.76
2019-03-22T05:24:45.242Z,9.78
2019-03-22T05:25:45.234Z,9.84
2019-03-22T05:26:45.420Z,9.84
2019-03-22T05:27:45.215Z,9.89
2019-03-22T05:28:45.194Z,9.91
2019-03-22T05:29:45.194Z,9.90
2019-03-22T05:30:45.178Z,9.90
2019-03-22T05:31:45.200Z,9.94
2019-03-22T05:32:45.152Z,9.89
2019-03-22T05:33:45.144Z,9.99
2019-03-22T05:34:45.176Z,9.96
2019-03-22T05:35:45.130Z,9.93
2019-03-22T05:36:45.138Z,9.96
2019-03-22T05:37:45.098Z,9.97
2019-03-22T05:38:45.085Z,9.96
2019-03-22T05:39:45.068Z,9.96
2019-03-22T05:40:45.065Z,9.94
2019-03-22T05:41:45.074Z,10.01
2019-03-22T05:42:45.042Z,9.94
2019-03-22T05:43:45.032Z,9.96
2019-03-22T05:44:45.016Z,9.94
2019-03-22T05:45:45.069Z,9.94
2019-03-22T05:46:45.002Z,10.05
2019-03-22T05:47:45.011Z,10.01
2019-03-22T05:48:44.974Z,10.07
2019-03-22T05:49:44.967Z,10.09
2019-03-22T05:50:44.957Z,10.08
2019-03-22T05:51:44.942Z,10.05
2019-03-22T05:52:44.942Z,10.08
2019-03-22T05:53:44.914Z,10.07
2019-03-22T05:54:44.913Z,10.12
2019-03-22T05:55:44.899Z,10.07
2019-03-22T05:56:44.894Z,10.01
2019-03-22T05:57:44.902Z,10.12
2019-03-22T05:58:44.868Z,10.01
2019-03-22T05:59:44.842Z,10.05
2019-03-22T06:00:44.841Z,10.14
2019-03-22T06:01:45.440Z,10.07
2019-03-22T06:02:44.840Z,10.15
2019-03-22T06:03:44.812Z,10.08
2019-03-22T06:04:44.810Z,10.09
2019-03-22T06:05:44.786Z,10.09
2019-03-22T06:06:44.764Z,10.15
2019-03-22T06:07:44.953Z,10.18
2019-03-22T06:08:44.752Z,10.11
2019-03-22T06:09:44.744Z,10.07
2019-03-22T06:10:44.722Z,10.07
2019-03-22T06:11:44.715Z,10.12
2019-03-22T06:12:44.700Z,10.07
2019-03-22T06:13:44.716Z,10.11
2019-03-22T06:14:44.684Z,10.11
2019-03-22T06:15:44.679Z,10.08
2019-03-22T06:16:44.655Z,9.99
2019-03-22T06:17:51.632Z,10.12
2019-03-22T06:18:45.648Z,10.08
2019-03-22T06:19:44.622Z,10.12
2019-03-22T06:20:44.632Z,10.14
2019-03-22T06:21:44.598Z,10.15
2019-03-22T06:22:44.590Z,10.11
2019-03-22T06:23:44.642Z,10.08
2019-03-22T06:24:44.570Z,10.05
2019-03-22T06:25:44.550Z,10.07
2019-03-22T06:26:44.556Z,10.04
2019-03-22T06:27:44.561Z,10.08
2019-03-22T06:28:45.282Z,10.01
2019-03-22T06:29:53.706Z,10.14
2019-03-22T06:30:45.502Z,10.15
2019-03-22T06:31:44.493Z,10.07
2019-03-22T06:32:44.490Z,10.09
2019-03-22T06:33:44.464Z,10.08
2019-03-22T06:34:44.476Z,10.15
2019-03-22T06:35:44.454Z,10.11
2019-03-22T06:36:44.433Z,10.18
2019-03-22T06:37:44.427Z,10.22
2019-03-22T06:38:44.415Z,10.20
2019-03-22T06:39:44.435Z,10.29
2019-03-22T06:40:44.384Z,10.30
2019-03-22T06:41:44.374Z,10.29
2019-03-22T06:42:44.363Z,10.29
2019-03-22T06:43:44.364Z,10.29
2019-03-22T06:44:44.373Z,10.34
2019-03-22T06:45:44.326Z,10.32
2019-03-22T06:46:44.324Z,10.40
2019-03-22T06:47:45.247Z,10.30
2019-03-22T06:48:44.302Z,10.45
2019-03-22T06:49:44.285Z,10.30
2019-03-22T06:50:44.301Z,10.30
2019-03-22T06:51:44.269Z,10.32
2019-03-22T06:52:44.252Z,10.26
2019-03-22T06:53:44.247Z,10.34
2019-03-22T06:54:44.230Z,10.32
2019-03-22T06:55:44.237Z,10.32
2019-03-22T06:56:44.215Z,10.32
2019-03-22T06:57:44.190Z,10.30
2019-03-22T06:58:44.182Z,10.34
2019-03-22T06:59:44.172Z,10.30
2019-03-22T07:00:44.176Z,10.42
2019-03-22T07:01:44.156Z,10.41
2019-03-22T07:02:44.140Z,10.45
2019-03-22T07:03:44.121Z,10.45
2019-03-22T07:04:44.117Z,10.36
2019-03-22T07:05:44.118Z,10.42
2019-03-22T07:06:44.104Z,10.47
2019-03-22T07:07:44.079Z,10.45
2019-03-22T07:08:44.069Z,10.53
2019-03-22T07:09:44.058Z,10.47
2019-03-22T07:10:44.088Z,10.51
2019-03-22T07:11:44.040Z,10.55
2019-03-22T07:12:44.025Z,10.52
2019-03-22T07:13:44.013Z,10.51
2019-03-22T07:14:44.001Z,10.59
2019-03-22T07:15:43.993Z,10.64
2019-03-22T07:16:44.012Z,10.55
2019-03-22T07:17:44.164Z,10.55
2019-03-22T07:18:43.964Z,10.61
2019-03-22T07:19:43.943Z,10.52
2019-03-22T07:20:43.938Z,10.59
2019-03-22T07:21:43.944Z,10.61
2019-03-22T07:22:43.910Z,10.61
2019-03-22T07:23:43.913Z,10.59
2019-03-22T07:24:43.887Z,10.60
2019-03-22T07:25:43.875Z,10.61
2019-03-22T07:26:43.872Z,10.63
2019-03-22T07:27:43.857Z,10.64
2019-03-22T07:28:43.906Z,10.64
2019-03-22T07:29:43.830Z,10.73
2019-03-22T07:30:43.816Z,10.61
2019-03-22T07:31:43.828Z,10.66
2019-03-22T07:32:43.801Z,10.64
2019-03-22T07:33:43.798Z,10.61
2019-03-22T07:34:43.788Z,10.64
2019-03-22T07:35:43.770Z,10.73
2019-03-22T07:36:43.774Z,10.67
2019-03-22T07:37:43.744Z,10.73
2019-03-22T07:38:43.759Z,10.70
2019-03-22T07:39:44.286Z,10.70
2019-03-22T07:40:43.716Z,10.67
2019-03-22T07:41:43.704Z,10.70
2019-03-22T07:42:43.685Z,10.70
2019-03-22T07:43:43.697Z,10.73
2019-03-22T07:44:43.675Z,10.71
2019-03-22T07:45:43.650Z,10.71
2019-03-22T07:46:43.638Z,10.79
2019-03-22T07:47:43.662Z,10.79
2019-03-22T07:48:43.612Z,10.78
2019-03-22T07:49:43.604Z,10.76
2019-03-22T07:50:43.598Z,10.79
2019-03-22T07:51:43.585Z,10.76
2019-03-22T07:52:43.592Z,10.88
2019-03-22T07:53:43.598Z,10.84
2019-03-22T07:54:43.564Z,10.78
2019-03-22T07:55:43.540Z,10.82
2019-03-22T07:56:43.585Z,10.82
2019-03-22T07:57:43.542Z,10.89
2019-03-22T07:58:43.508Z,10.78
2019-03-22T07:59:43.491Z,10.89
2019-03-22T08:00:43.488Z,10.92
2019-03-22T08:01:43.477Z,10.94
2019-03-22T08:02:43.460Z,10.86
2019-03-22T08:03:43.478Z,10.91
2019-03-22T08:04:43.446Z,10.86
2019-03-22T08:05:50.901Z,10.82
2019-03-22T08:06:44.422Z,10.81
2019-03-22T08:07:43.414Z,10.89
2019-03-22T08:08:43.419Z,10.84
2019-03-22T08:09:43.430Z,10.78
2019-03-22T08:10:43.386Z,10.81
2019-03-22T08:11:43.385Z,10.82
2019-03-22T08:12:43.387Z,10.81
2019-03-22T08:13:43.379Z,10.81
2019-03-22T08:14:43.324Z,10.76
2019-03-22T08:15:43.321Z,10.81
2019-03-22T08:16:43.302Z,10.84
2019-03-22T08:17:43.334Z,10.84
2019-03-22T08:18:43.323Z,10.84
2019-03-22T08:19:43.293Z,10.85
2019-03-22T08:20:43.261Z,10.81
2019-03-22T08:21:43.325Z,10.81
2019-03-22T08:22:43.244Z,10.79
2019-03-22T08:23:43.226Z,10.84
2019-03-22T08:24:43.360Z,10.78
2019-03-22T08:25:43.609Z,10.81
2019-03-22T08:26:43.213Z,10.82
2019-03-22T08:27:43.209Z,10.91
2019-03-22T08:28:43.186Z,10.89
2019-03-22T08:29:43.179Z,10.91
2019-03-22T08:30:43.592Z,10.88
2019-03-22T08:31:43.130Z,10.91
2019-03-22T08:32:43.154Z,10.92
2019-03-22T08:33:43.128Z,10.91
2019-03-22T08:34:43.247Z,10.86
2019-03-22T08:35:43.087Z,10.84
2019-03-22T08:36:43.099Z,10.84
2019-03-22T08:37:52.154Z,10.85
2019-03-22T08:38:44.073Z,10.78
2019-03-22T08:39:43.100Z,10.88
2019-03-22T08:40:43.032Z,10.91
2019-03-22T08:41:43.025Z,10.85
2019-03-22T08:42:43.049Z,10.92
2019-03-22T08:43:43.004Z,10.94
2019-03-22T08:44:42.990Z,11.00
2019-03-22T08:45:43.008Z,11.02
2019-03-22T08:46:44.967Z,11.02
2019-03-22T08:47:42.971Z,10.96
2019-03-22T08:48:42.944Z,11.02
2019-03-22T08:49:43.179Z,11.09
2019-03-22T08:50:42.935Z,11.02
2019-03-22T08:51:42.912Z,11.09
2019-03-22T08:52:42.905Z,11.09
2019-03-22T08:53:54.571Z,11.07
2019-03-22T08:54:43.872Z,11.07
2019-03-22T08:55:42.882Z,11.09
2019-03-22T08:56:42.938Z,11.07
2019-03-22T08:57:42.836Z,11.06
2019-03-22T08:58:42.836Z,11.07
2019-03-22T08:59:42.821Z,11.17
2019-03-22T09:00:56.277Z,11.09
2019-03-22T09:01:42.828Z,11.11
2019-03-22T09:02:42.788Z,11.11
2019-03-22T09:03:42.769Z,11.18
2019-03-22T09:04:42.837Z,11.17
2019-03-22T09:05:42.783Z,11.15
2019-03-22T09:06:42.739Z,11.18
2019-03-22T09:07:42.724Z,11.21
2019-03-22T09:08:42.722Z,11.35
2019-03-22T09:09:42.736Z,11.27
2019-03-22T09:10:42.786Z,11.32
2019-03-22T09:11:42.678Z,11.33
2019-03-22T09:12:42.673Z,11.29
2019-03-22T09:13:42.684Z,11.29
2019-03-22T09:14:42.689Z,11.28
2019-03-22T09:15:42.643Z,11.33
2019-03-22T09:16:42.802Z,11.29
2019-03-22T09:17:42.657Z,11.35
2019-03-22T09:18:42.648Z,11.24
2019-03-22T09:19:42.596Z,11.37
2019-03-22T09:20:42.581Z,11.28
2019-03-22T09:21:42.639Z,11.32
2019-03-22T09:22:42.583Z,11.35
2019-03-22T09:23:42.578Z,11.37
2019-03-22T09:24:42.551Z,11.27
2019-03-22T09:25:42.528Z,11.29
2019-03-22T09:26:47.567Z,11.29
2019-03-22T09:27:43.502Z,11.35
2019-03-22T09:28:42.506Z,11.32
2019-03-22T09:29:42.477Z,11.33
2019-03-22T09:30:42.464Z,11.27
2019-03-22T09:31:42.485Z,11.35
2019-03-22T09:32:42.459Z,11.29
2019-03-22T09:33:42.477Z,11.28
2019-03-22T09:34:42.419Z,11.18
2019-03-22T09:35:42.543Z,11.09
2019-03-22T09:36:42.872Z,11.09
2019-03-22T09:37:42.396Z,11.09
2019-03-22T09:38:42.409Z,11.04
2019-03-22T09:39:42.359Z,11.03
2019-03-22T09:40:42.354Z,11.09
2019-03-22T09:41:42.373Z,11.10
2019-03-22T09:42:42.333Z,11.21
2019-03-22T09:43:42.324Z,11.22
2019-03-22T09:44:44.586Z,11.22
2019-03-22T09:45:42.296Z,11.28
2019-03-22T09:46:42.378Z,11.28
2019-03-22T09:47:42.308Z,11.19
2019-03-22T09:48:42.332Z,11.21
2019-03-22T09:49:42.350Z,11.15
2019-03-22T09:50:42.243Z,11.14
2019-03-22T09:51:42.249Z,11.22
2019-03-22T09:52:42.266Z,11.24
2019-03-22T09:53:42.222Z,11.22
2019-03-22T09:54:42.202Z,11.21
2019-03-22T09:55:42.186Z,11.19
2019-03-22T09:56:47.299Z,11.19
2019-03-22T09:57:43.168Z,11.18
2019-03-22T09:58:42.159Z,11.14
2019-03-22T09:59:42.142Z,11.09
2019-03-22T10:00:42.224Z,11.09
2019-03-22T10:01:42.140Z,11.07
2019-03-22T10:02:42.125Z,11.09
2019-03-22T10:03:42.729Z,11.10
2019-03-22T10:04:42.320Z,11.11
2019-03-22T10:05:42.070Z,11.21
2019-03-22T10:06:42.091Z,11.22
2019-03-22T10:07:42.100Z,11.04
2019-03-22T10:08:42.048Z,11.03
2019-03-22T10:09:42.066Z,10.99
2019-03-22T10:10:42.050Z,10.85
2019-03-22T10:11:42.049Z,10.79
2019-03-22T10:12:42.020Z,10.78
2019-03-22T10:13:42.012Z,10.79
2019-03-22T10:14:41.968Z,10.85
2019-03-22T10:15:41.971Z,10.89
2019-03-22T10:16:42.129Z,10.97
2019-03-22T10:17:41.976Z,11.02
2019-03-22T10:18:41.935Z,10.97
2019-03-22T10:19:42.233Z,11.06
2019-03-22T10:20:41.908Z,11.07
2019-03-22T10:21:41.903Z,11.11
2019-03-22T10:22:41.914Z,11.14
2019-03-22T10:23:41.899Z,11.04
2019-03-22T10:24:41.914Z,11.11
2019-03-22T10:25:41.856Z,11.14
2019-03-22T10:26:41.835Z,11.14
2019-03-22T10:27:41.864Z,11.17
2019-03-22T10:28:41.821Z,11.22
2019-03-22T10:29:41.826Z,11.15
2019-03-22T10:30:41.858Z,11.15
2019-03-22T10:31:41.802Z,11.19
2019-03-22T10:32:41.803Z,11.10
2019-03-22T10:33:41.796Z,11.07
2019-03-22T10:34:41.750Z,11.07
2019-03-22T10:35:41.752Z,11.10
2019-03-22T10:36:42.345Z,11.21
2019-03-22T10:37:41.753Z,11.18
2019-03-22T10:38:41.718Z,11.19
2019-03-22T10:39:41.817Z,11.11
2019-03-22T10:40:41.685Z,11.21
2019-03-22T10:41:41.659Z,11.29
2019-03-22T10:42:41.686Z,11.29
2019-03-22T10:43:41.708Z,11.32
2019-03-22T10:44:41.640Z,11.28
2019-03-22T10:45:41.686Z,11.32
2019-03-22T10:46:41.759Z,11.43
2019-03-22T10:47:41.615Z,11.36
2019-03-22T10:48:41.651Z,11.44
2019-03-22T10:49:42.041Z,11.35
2019-03-22T10:50:41.610Z,11.39
2019-03-22T10:51:41.626Z,11.39
2019-03-22T10:52:41.587Z,11.42
2019-03-22T10:53:41.604Z,11.37
2019-03-22T10:54:41.597Z,11.44
2019-03-22T10:55:41.515Z,11.49
2019-03-22T10:56:41.492Z,11.54
2019-03-22T10:57:41.495Z,11.57
2019-03-22T10:58:41.562Z,11.62
2019-03-22T10:59:41.615Z,11.60
2019-03-22T11:00:41.471Z,11.54
2019-03-22T11:01:48.691Z,11.64
2019-03-22T11:02:42.425Z,11.64
2019-03-22T11:03:41.468Z,11.67
2019-03-22T11:04:41.403Z,11.64
2019-03-22T11:05:41.389Z,11.64
2019-03-22T11:06:41.388Z,11.67
2019-03-22T11:07:41.382Z,11.70
2019-03-22T11:08:41.387Z,11.70
2019-03-22T11:09:41.363Z,11.65
2019-03-22T11:10:41.348Z,11.72
2019-03-22T11:11:41.324Z,11.70
2019-03-22T11:12:41.323Z,11.69
2019-03-22T11:13:41.323Z,11.72
2019-03-22T11:14:41.303Z,11.67
2019-03-22T11:15:48.438Z,11.65
2019-03-22T11:16:42.280Z,11.67
2019-03-22T11:17:41.264Z,11.51
2019-03-22T11:18:41.282Z,11.70
2019-03-22T11:19:41.232Z,11.67
2019-03-22T11:20:41.240Z,11.69
2019-03-22T11:21:41.210Z,11.65
2019-03-22T11:22:41.346Z,11.61
2019-03-22T11:23:41.209Z,11.67
2019-03-22T11:24:41.199Z,11.62
2019-03-22T11:25:41.192Z,11.72
2019-03-22T11:26:41.164Z,11.73
2019-03-22T11:27:41.168Z,11.75
2019-03-22T11:28:41.194Z,11.67
2019-03-22T11:29:41.128Z,11.70
2019-03-22T11:30:41.118Z,11.73
2019-03-22T11:31:41.104Z,11.75
2019-03-22T11:32:41.087Z,11.76
2019-03-22T11:33:41.095Z,11.76
2019-03-22T11:34:41.067Z,11.69
2019-03-22T11:35:41.067Z,11.57
2019-03-22T11:36:41.046Z,11.60
2019-03-22T11:37:41.037Z,11.64
2019-03-22T11:38:41.052Z,11.65
2019-03-22T11:39:41.007Z,11.57
2019-03-22T11:40:41.000Z,11.60
2019-03-22T11:41:41.000Z,11.60
2019-03-22T11:42:41.218Z,11.64
2019-03-22T11:43:40.987Z,11.57
2019-03-22T11:44:40.964Z,11.58
2019-03-22T11:45:41.044Z,11.67
2019-03-22T11:46:40.942Z,11.64
2019-03-22T11:47:40.919Z,11.70
2019-03-22T11:48:40.931Z,11.65
2019-03-22T11:49:40.898Z,11.69
2019-03-22T11:50:40.891Z,11.70
2019-03-22T11:51:40.881Z,11.78
2019-03-22T11:52:40.878Z,11.83
2019-03-22T11:53:40.885Z,11.73
2019-03-22T11:54:40.839Z,11.67
2019-03-22T11:55:40.829Z,11.60
2019-03-22T11:56:40.819Z,11.57
2019-03-22T11:57:43.427Z,11.57
2019-03-22T11:58:40.805Z,11.60
2019-03-22T11:59:40.809Z,11.61
2019-03-22T12:00:40.769Z,11.58
2019-03-22T12:01:40.761Z,11.70
2019-03-22T12:02:40.749Z,11.82
2019-03-22T12:03:40.743Z,11.86
2019-03-22T12:04:40.747Z,11.72
2019-03-22T12:05:40.845Z,11.67
2019-03-22T12:06:40.756Z,11.69
2019-03-22T12:07:40.696Z,11.62
2019-03-22T12:08:40.677Z,11.64
2019-03-22T12:09:40.696Z,11.55
2019-03-22T12:10:40.654Z,11.64
2019-03-22T12:11:42.148Z,11.65
2019-03-22T12:12:40.663Z,11.65
2019-03-22T12:13:40.637Z,11.54
2019-03-22T12:14:40.640Z,11.72
2019-03-22T12:15:40.611Z,11.65
2019-03-22T12:16:40.590Z,11.73
2019-03-22T12:17:40.594Z,11.85
2019-03-22T12:18:40.570Z,11.82
2019-03-22T12:19:40.581Z,11.94
2019-03-22T12:20:40.565Z,11.91
2019-03-22T12:21:40.561Z,11.86
2019-03-22T12:22:40.523Z,11.96
2019-03-22T12:23:40.519Z,12.01
2019-03-22T12:24:40.538Z,12.05
2019-03-22T12:25:40.491Z,12.21
2019-03-22T12:26:40.490Z,12.17
2019-03-22T12:27:40.466Z,12.27
2019-03-22T12:28:40.462Z,12.27
2019-03-22T12:29:40.482Z,12.37
2019-03-22T12:30:40.437Z,12.39
2019-03-22T12:31:40.427Z,12.53
2019-03-22T12:32:40.417Z,12.42
2019-03-22T12:33:40.404Z,12.53
2019-03-22T12:34:40.411Z,12.50
2019-03-22T12:35:42.463Z,12.52
2019-03-22T12:36:40.360Z,12.49
2019-03-22T12:37:40.365Z,12.35
2019-03-22T12:38:40.349Z,12.42
2019-03-22T12:39:41.939Z,12.32
2019-03-22T12:40:40.327Z,12.52
2019-03-22T12:41:40.305Z,12.37
2019-03-22T12:42:40.296Z,12.47
2019-03-22T12:43:40.299Z,12.53
2019-03-22T12:44:40.313Z,12.53
2019-03-22T12:45:40.268Z,12.60
2019-03-22T12:46:40.256Z,12.59
2019-03-22T12:47:40.251Z,12.54
2019-03-22T12:48:40.226Z,12.60
2019-03-22T12:49:40.832Z,12.56
2019-03-22T12:50:40.242Z,12.65
2019-03-22T12:51:40.194Z,12.65
2019-03-22T12:52:40.433Z,12.56
2019-03-22T12:53:40.189Z,12.52
2019-03-22T12:54:40.185Z,12.52
2019-03-22T12:55:40.160Z,12.49
2019-03-22T12:56:40.141Z,12.47
2019-03-22T12:57:40.127Z,12.45
2019-03-22T12:58:40.115Z,12.52
2019-03-22T12:59:40.130Z,12.53
2019-03-22T13:00:40.099Z,12.52
2019-03-22T13:01:40.086Z,12.52
2019-03-22T13:02:42.450Z,12.54
2019-03-22T13:03:40.057Z,12.53